Time;durP1;ratioP1;P1;durP2;ratioP2;P2;SDS_P1;SDS_P2;PMS_P1;PMS_P2;Temp;Humidity;BMP_temperature;BMP_pressure;BME280_temperature;BME280_humidity;BME280_pressure;Samples;Min_cycle;Max_cycle;Signal;HPM_P1;HPM_P2
2021/01/04 00:02:23;;;;;;;12.20;10.10;;;1.50;99.90;;;;;;5038339;28;20663;-84
2021/01/04 00:05:07;;;;;;;11.20;9.27;;;1.60;99.90;;;;;;5037925;28;20228;-83
2021/01/04 00:07:52;;;;;;;14.95;9.75;;;1.60;99.90;;;;;;5038211;28;20188;-84
2021/01/04 00:10:29;;;;;;;16.00;11.63;;;1.60;99.90;;;;;;5047696;28;20212;-83
2021/01/04 00:13:00;;;;;;;14.32;11.55;;;1.60;99.90;;;;;;5052129;28;20192;-83
2021/01/04 00:15:29;;;;;;;13.20;11.57;;;1.60;99.90;;;;;;5045016;28;20238;-84
2021/01/04 00:18:42;;;;;;;17.50;13.40;;;1.70;99.90;;;;;;5039500;28;20230;-83
2021/01/04 00:21:16;;;;;;;15.30;11.20;;;1.60;99.90;;;;;;5037687;28;20684;-83
2021/01/04 00:23:55;;;;;;;12.70;10.57;;;1.60;99.90;;;;;;5037792;28;20227;-82
2021/01/04 00:26:28;;;;;;;13.20;10.32;;;1.70;99.90;;;;;;5036232;28;20221;-83
2021/01/04 00:29:00;;;;;;;14.27;10.40;;;1.70;99.90;;;;;;5039436;28;20276;-83
2021/01/04 00:31:29;;;;;;;16.58;12.27;;;1.70;99.90;;;;;;5037166;28;20188;-82
2021/01/04 00:34:02;;;;;;;15.10;11.90;;;1.70;99.90;;;;;;5037636;28;20228;-83
2021/01/04 00:36:35;;;;;;;16.23;12.65;;;1.70;99.90;;;;;;5040167;28;20184;-83
2021/01/04 00:39:31;;;;;;;13.70;10.75;;;1.70;99.90;;;;;;5037605;28;20311;-83
2021/01/04 00:42:04;;;;;;;14.00;10.40;;;1.60;99.90;;;;;;5035074;28;20785;-82
2021/01/04 00:44:45;;;;;;;16.67;12.80;;;1.40;99.90;;;;;;5035311;28;20226;-83
2021/01/04 00:47:21;;;;;;;17.40;12.32;;;1.60;99.90;;;;;;5036854;28;20244;-83
2021/01/04 00:49:53;;;;;;;16.85;12.07;;;1.70;99.90;;;;;;5037175;28;20188;-83
2021/01/04 00:52:28;;;;;;;13.75;11.07;;;1.70;99.90;;;;;;5036899;28;20189;-84
2021/01/04 00:55:22;;;;;;;14.77;11.77;;;1.60;99.90;;;;;;5036623;28;20223;-83
2021/01/04 00:58:19;;;;;;;12.63;10.30;;;1.70;99.90;;;;;;5037307;28;20204;-84
2021/01/04 01:00:53;;;;;;;15.15;12.73;;;1.60;99.90;;;;;;5037093;28;20192;-82
2021/01/04 01:03:46;;;;;;;15.43;12.40;;;1.60;99.90;;;;;;5037016;28;20256;-83
2021/01/04 01:06:24;;;;;;;15.45;12.55;;;1.60;99.90;;;;;;5041051;28;20191;-82
2021/01/04 01:08:54;;;;;;;12.20;9.98;;;1.70;99.90;;;;;;5047400;28;20720;-82
2021/01/04 01:11:30;;;;;;;17.10;12.90;;;1.60;99.90;;;;;;5039895;28;20204;-83
2021/01/04 01:14:06;;;;;;;10.10;8.90;;;1.60;99.90;;;;;;5037015;28;20235;-83
2021/01/04 01:17:02;;;;;;;8.88;7.65;;;1.70;99.90;;;;;;5036742;28;20751;-83
2021/01/04 01:19:32;;;;;;;12.55;9.70;;;1.80;99.90;;;;;;5037158;28;20299;-82
2021/01/04 01:21:59;;;;;;;10.90;8.60;;;1.70;99.90;;;;;;5038216;28;20255;-82
2021/01/04 01:24:26;;;;;;;12.73;10.65;;;1.70;99.90;;;;;;5037456;28;20729;-82
2021/01/04 01:27:15;;;;;;;10.57;9.48;;;1.70;99.90;;;;;;5037126;28;20211;-83
2021/01/04 01:30:07;;;;;;;9.55;8.55;;;1.70;99.90;;;;;;5040812;28;20245;-83
2021/01/04 01:32:59;;;;;;;12.50;10.57;;;1.70;99.90;;;;;;5044138;28;20196;-82
2021/01/04 01:35:38;;;;;;;13.93;10.20;;;1.70;99.90;;;;;;5046252;28;20256;-83
2021/01/04 01:38:36;;;;;;;12.82;10.77;;;1.70;99.90;;;;;;5048837;28;20243;-83
2021/01/04 01:41:21;;;;;;;13.77;10.82;;;1.60;99.90;;;;;;5052816;28;20195;-82
2021/01/04 01:44:06;;;;;;;16.15;11.18;;;1.60;99.90;;;;;;5048689;28;20306;-82
2021/01/04 01:46:38;;;;;;;15.23;12.60;;;1.80;99.90;;;;;;5040892;28;20204;-83
2021/01/04 01:49:33;;;;;;;14.73;11.80;;;1.70;99.90;;;;;;5038674;28;20185;-83
2021/01/04 01:52:19;;;;;;;12.13;10.30;;;1.80;99.90;;;;;;5037940;28;20208;-82
2021/01/04 01:55:02;;;;;;;15.13;10.77;;;1.80;99.90;;;;;;5038314;28;20306;-83
2021/01/04 01:58:00;;;;;;;14.18;10.85;;;1.70;99.90;;;;;;5037718;28;20208;-83
2021/01/04 02:00:35;;;;;;;13.73;11.73;;;1.70;99.90;;;;;;5037999;28;20207;-82
2021/01/04 02:03:12;;;;;;;15.07;11.10;;;1.70;99.90;;;;;;5037734;28;20203;-82
2021/01/04 02:05:57;;;;;;;15.60;11.68;;;1.70;99.90;;;;;;5037547;28;20267;-82
2021/01/04 02:08:26;;;;;;;13.45;12.00;;;1.70;99.90;;;;;;5036376;28;20249;-83
2021/01/04 02:10:55;;;;;;;12.85;10.85;;;1.70;99.90;;;;;;5036624;28;20206;-83
2021/01/04 02:13:26;;;;;;;17.38;11.55;;;1.80;99.90;;;;;;5036575;28;20215;-83
2021/01/04 02:15:54;;;;;;;13.65;11.20;;;1.80;99.90;;;;;;5037129;28;20659;-82
2021/01/04 02:22:17;;;;;;;10.88;9.55;;;1.80;99.90;;;;;;5137474;27;20536;-83
2021/01/04 02:24:44;;;;;;;11.38;9.38;;;1.90;99.90;;;;;;5136514;28;20580;-83
2021/01/04 02:27:18;;;;;;;10.77;9.65;;;1.80;99.90;;;;;;5136701;28;20200;-83
2021/01/04 02:29:44;;;;;;;13.00;11.10;;;1.80;99.90;;;;;;5136963;27;20201;-83
2021/01/04 02:32:39;;;;;;;10.55;8.32;;;1.70;99.90;;;;;;5152266;22;20221;-82
2021/01/04 02:38:10;;;;;;;14.55;12.48;;;1.70;99.90;;;;;;5083153;28;20647;-84
2021/01/04 02:40:41;;;;;;;12.20;9.80;;;1.70;99.90;;;;;;5103666;28;20209;-85
2021/01/04 02:43:20;;;;;;;12.18;10.63;;;1.70;99.90;;;;;;5124906;28;20246;-83
2021/01/04 02:46:10;;;;;;;15.32;11.25;;;1.80;99.90;;;;;;5133538;28;20178;-84
2021/01/04 02:48:56;;;;;;;12.40;11.10;;;1.70;99.90;;;;;;5131545;28;20193;-84
2021/01/04 02:51:39;;;;;;;12.93;11.55;;;1.70;99.90;;;;;;5130167;28;20185;-85
2021/01/04 02:54:24;;;;;;;12.15;9.00;;;1.80;99.90;;;;;;5126821;28;20182;-84
2021/01/04 02:57:22;;;;;;;13.15;10.82;;;1.70;99.90;;;;;;5123910;28;20258;-83
2021/01/04 03:00:01;;;;;;;11.48;9.30;;;1.80;99.90;;;;;;5123297;28;20206;-84
2021/01/04 03:02:37;;;;;;;11.35;10.15;;;1.70;99.90;;;;;;5123569;28;20243;-83
2021/01/04 03:05:09;;;;;;;11.27;10.00;;;1.80;99.90;;;;;;5123506;28;20280;-84
2021/01/04 03:07:35;;;;;;;11.90;9.82;;;1.80;99.90;;;;;;5123298;28;20239;-84
2021/01/04 03:10:15;;;;;;;14.70;12.15;;;1.70;99.90;;;;;;5122570;28;20208;-84
2021/01/04 03:12:46;;;;;;;11.02;9.68;;;1.70;99.90;;;;;;5122489;28;20217;-85
2021/01/04 03:15:35;;;;;;;10.63;9.52;;;1.70;99.90;;;;;;5122794;28;20212;-85
2021/01/04 03:18:14;;;;;;;9.20;8.20;;;1.80;99.90;;;;;;5122755;28;20185;-84
2021/01/04 03:20:41;;;;;;;11.05;8.20;;;1.70;99.90;;;;;;5121981;28;20252;-84
2021/01/04 03:23:08;;;;;;;8.98;8.07;;;1.70;99.90;;;;;;5122376;28;20229;-85
2021/01/04 03:25:41;;;;;;;12.07;9.68;;;1.80;99.90;;;;;;5123088;28;20299;-85
2021/01/04 03:28:20;;;;;;;10.73;8.60;;;1.80;99.90;;;;;;5123986;28;20190;-86
2021/01/04 03:30:50;;;;;;;10.20;9.20;;;1.80;99.90;;;;;;5122181;28;20255;-84
2021/01/04 03:33:19;;;;;;;11.90;9.25;;;1.90;99.90;;;;;;5108119;28;20241;-84
2021/01/04 03:35:54;;;;;;;11.15;9.65;;;1.80;99.90;;;;;;5113299;28;20227;-84
2021/01/04 03:38:21;;;;;;;11.63;10.50;;;1.80;99.90;;;;;;5118367;28;20189;-84
2021/01/04 03:40:58;;;;;;;10.13;9.13;;;1.80;99.90;;;;;;5117546;28;20226;-84
2021/01/04 03:43:48;;;;;;;10.65;9.65;;;1.70;99.90;;;;;;5115638;28;20288;-84
2021/01/04 03:46:15;;;;;;;10.60;9.10;;;1.80;99.90;;;;;;5092564;28;20233;-85
2021/01/04 03:49:15;;;;;;;10.63;8.95;;;1.80;99.90;;;;;;5106763;28;20208;-84
2021/01/04 03:51:55;;;;;;;11.57;10.35;;;1.70;99.90;;;;;;5105919;28;20194;-83
2021/01/04 03:54:22;;;;;;;16.23;9.93;;;1.70;99.90;;;;;;5104905;28;20182;-85
2021/01/04 03:56:54;;;;;;;12.60;8.25;;;1.70;99.90;;;;;;5106207;28;20206;-83
2021/01/04 03:59:33;;;;;;;8.88;7.20;;;1.80;99.90;;;;;;5104873;28;20217;-85
2021/01/04 04:02:03;;;;;;;9.30;8.30;;;1.80;99.90;;;;;;5108373;28;20225;-84
2021/01/04 04:04:36;;;;;;;8.77;7.35;;;1.70;99.90;;;;;;5106904;28;20978;-84
2021/01/04 04:07:03;;;;;;;9.75;8.40;;;1.90;99.90;;;;;;5108916;28;20623;-85
2021/01/04 04:09:37;;;;;;;11.10;9.98;;;1.80;99.90;;;;;;5107657;28;20421;-85
2021/01/04 04:12:05;;;;;;;9.70;8.77;;;1.80;99.90;;;;;;5107710;28;20213;-83
2021/01/04 04:14:43;;;;;;;9.90;8.85;;;1.70;99.90;;;;;;5107552;28;20236;-86
2021/01/04 04:17:18;;;;;;;8.00;7.20;;;1.70;99.90;;;;;;5107513;28;20661;-82
2021/01/04 04:19:53;;;;;;;8.15;7.15;;;1.80;99.90;;;;;;5107410;28;20196;-84
2021/01/04 04:22:21;;;;;;;9.25;8.35;;;1.80;99.90;;;;;;5117629;28;20209;-84
2021/01/04 04:24:53;;;;;;;7.43;6.43;;;1.80;99.90;;;;;;5118125;28;20210;-85
2021/01/04 04:27:21;;;;;;;9.32;8.13;;;1.80;99.90;;;;;;5116841;28;20534;-84
2021/01/04 04:29:51;;;;;;;9.40;8.50;;;1.80;99.90;;;;;;5117202;28;20443;-83
2021/01/04 04:32:19;;;;;;;8.50;7.60;;;1.90;99.90;;;;;;5118566;28;20229;-84
2021/01/04 04:34:48;;;;;;;10.63;9.10;;;1.90;99.90;;;;;;5119299;28;20200;-84
2021/01/04 04:37:18;;;;;;;8.10;6.32;;;1.70;99.90;;;;;;5114126;28;20194;-84
2021/01/04 04:39:51;;;;;;;7.82;7.13;;;1.80;99.90;;;;;;5107253;28;20658;-83
2021/01/04 04:42:18;;;;;;;12.52;11.30;;;1.80;99.90;;;;;;5106831;28;20228;-84
2021/01/04 04:44:58;;;;;;;10.80;9.38;;;1.80;99.90;;;;;;5103548;28;20229;-83
2021/01/04 04:47:44;;;;;;;12.30;11.02;;;1.60;99.90;;;;;;5105652;28;20326;-82
2021/01/04 04:50:36;;;;;;;13.05;10.57;;;1.60;99.90;;;;;;5104458;28;20181;-82
2021/01/04 04:53:39;;;;;;;9.20;8.38;;;1.60;99.90;;;;;;5101519;28;20266;-84
2021/01/04 04:56:43;;;;;;;10.13;9.13;;;1.60;99.90;;;;;;5101699;28;20198;-83
2021/01/04 04:59:20;;;;;;;9.35;8.38;;;1.60;99.90;;;;;;5111974;28;20638;-81
2021/01/04 05:01:59;;;;;;;11.00;9.90;;;1.70;99.90;;;;;;5104942;28;20209;-85
2021/01/04 05:04:47;;;;;;;11.00;9.40;;;1.60;99.90;;;;;;5109697;28;20241;-81
2021/01/04 05:07:26;;;;;;;12.68;11.38;;;1.60;99.90;;;;;;5109652;28;20438;-84
2021/01/04 05:09:57;;;;;;;11.95;10.77;;;1.60;99.90;;;;;;5107943;28;20190;-84
2021/01/04 05:12:42;;;;;;;13.10;11.80;;;1.50;99.90;;;;;;5103961;28;20236;-83
2021/01/04 05:15:24;;;;;;;13.02;10.93;;;1.50;99.90;;;;;;5107990;28;20261;-83
2021/01/04 05:18:35;;;;;;;10.20;8.75;;;1.60;99.90;;;;;;5115866;28;20224;-85
2021/01/04 05:21:35;;;;;;;8.88;7.32;;;1.60;99.90;;;;;;5115358;28;20225;-83
2021/01/04 05:24:52;;;;;;;11.90;10.50;;;1.80;99.90;;;;;;5108362;28;20202;-84
2021/01/04 05:27:43;;;;;;;12.30;11.10;;;1.70;99.90;;;;;;5044096;28;20533;-85
2021/01/04 05:30:33;;;;;;;13.07;11.52;;;1.60;99.90;;;;;;5042895;28;20444;-84
2021/01/04 05:33:30;;;;;;;13.48;11.55;;;1.60;99.90;;;;;;5091595;28;20229;-85
2021/01/04 05:36:25;;;;;;;11.30;8.68;;;1.50;99.90;;;;;;5105427;28;20269;-84
2021/01/04 05:39:06;;;;;;;11.57;10.18;;;1.50;99.90;;;;;;5103012;28;20416;-84
2021/01/04 05:42:14;;;;;;;12.73;9.85;;;1.70;99.90;;;;;;5106504;28;20221;-84
2021/01/04 05:45:14;;;;;;;10.45;9.27;;;1.60;99.90;;;;;;5110420;28;20221;-85
2021/01/04 05:47:59;;;;;;;8.93;8.05;;;1.70;99.90;;;;;;5112609;28;20206;-84
2021/01/04 05:50:43;;;;;;;7.63;6.40;;;1.70;99.90;;;;;;5111928;28;20178;-83
2021/01/04 05:53:18;;;;;;;6.80;5.82;;;1.70;99.90;;;;;;5111786;28;20225;-83
2021/01/04 05:58:48;;;;;;;8.82;6.65;;;1.70;99.90;;;;;;5089286;28;20209;-84
2021/01/04 06:01:35;;;;;;;7.43;6.72;;;1.60;99.90;;;;;;5104179;28;20220;-82
2021/01/04 06:04:05;;;;;;;9.63;8.48;;;1.50;99.90;;;;;;5104868;28;20209;-82
2021/01/04 06:06:43;;;;;;;13.40;11.75;;;1.40;99.90;;;;;;5104865;28;20209;-82
2021/01/04 06:09:42;;;;;;;12.25;10.85;;;1.30;99.90;;;;;;5105088;28;20182;-83
2021/01/04 06:12:27;;;;;;;11.57;8.88;;;1.30;99.90;;;;;;5095841;28;20225;-84
2021/01/04 06:15:25;;;;;;;12.07;10.27;;;1.40;99.90;;;;;;5105769;28;20226;-83
2021/01/04 06:18:23;;;;;;;12.15;10.00;;;1.30;99.90;;;;;;5105165;28;20198;-85
2021/01/04 06:21:49;;;;;;;;;;;;;;;;;;;;;
2021/01/04 06:27:55;;;;;;;13.98;10.82;;;1.30;99.90;;;;;;5100845;28;20208;-83
2021/01/04 06:31:10;;;;;;;15.82;12.38;;;1.30;99.90;;;;;;5077888;28;20212;-84
2021/01/04 06:34:26;;;;;;;13.35;10.85;;;1.30;99.90;;;;;;5103390;28;20725;-85
2021/01/04 06:47:09;;;;;;;15.25;11.82;;;1.30;99.90;;;;;;5116927;28;20245;-82
2021/01/04 06:50:24;;;;;;;13.05;11.63;;;1.40;99.90;;;;;;5107850;28;20637;-83
2021/01/04 06:57:05;;;;;;;14.13;11.60;;;1.50;99.90;;;;;;5106685;28;20216;-83
2021/01/04 07:00:42;;;;;;;10.50;9.40;;;1.40;99.90;;;;;;5047898;28;20743;-83
2021/01/04 07:03:44;;;;;;;13.10;11.57;;;1.40;99.90;;;;;;4908971;29;20240;-84
2021/01/04 07:07:05;;;;;;;15.68;12.02;;;1.40;99.90;;;;;;4915046;28;20263;-84
2021/01/04 07:10:15;;;;;;;11.30;9.77;;;1.50;99.90;;;;;;5059989;28;20200;-80
2021/01/04 07:13:30;;;;;;;11.02;9.35;;;1.50;99.90;;;;;;5120905;28;20213;-83
2021/01/04 07:16:33;;;;;;;14.45;11.00;;;1.50;99.90;;;;;;5080633;28;20235;-84
2021/01/04 07:19:43;;;;;;;12.30;8.70;;;1.50;99.90;;;;;;5109291;28;20258;-84
2021/01/04 07:22:49;;;;;;;9.88;7.53;;;1.50;99.90;;;;;;5106938;28;20213;-84
2021/01/04 07:29:28;;;;;;;8.50;6.78;;;1.70;99.90;;;;;;5106242;28;20206;-82
2021/01/04 07:32:30;;;;;;;8.77;7.28;;;1.80;99.90;;;;;;5100294;28;20198;-84
2021/01/04 07:35:37;;;;;;;8.95;7.00;;;1.70;99.90;;;;;;5106095;28;20205;-84
2021/01/04 07:39:11;;;;;;;8.20;6.43;;;1.60;99.90;;;;;;5002874;28;20209;-82
2021/01/04 07:45:41;;;;;;;7.55;6.57;;;1.70;99.90;;;;;;5007998;28;20267;-83
2021/01/04 07:52:19;;;;;;;8.50;7.60;;;1.60;99.90;;;;;;4956360;28;20238;-83
2021/01/04 07:55:34;;;;;;;10.13;8.55;;;1.60;99.90;;;;;;5107949;28;20201;-84
2021/01/04 07:58:47;;;;;;;12.30;7.57;;;1.70;99.90;;;;;;5047156;28;20334;-84
2021/01/04 08:02:11;;;;;;;8.38;6.95;;;1.80;99.90;;;;;;5106662;28;20213;-84
2021/01/04 08:05:27;;;;;;;10.73;6.70;;;1.70;99.90;;;;;;5099734;28;20244;-84
2021/01/04 08:08:33;;;;;;;9.57;6.10;;;1.70;99.90;;;;;;5060918;28;20206;-85
2021/01/04 08:21:19;;;;;;;9.40;8.05;;;1.80;99.90;;;;;;4970130;29;20237;-84
2021/01/04 08:24:27;;;;;;;10.43;7.70;;;1.70;99.90;;;;;;4967789;29;20241;-83
2021/01/04 08:30:43;;;;;;;12.15;9.35;;;1.90;99.90;;;;;;5068813;28;20195;-82
2021/01/04 08:33:15;;;;;;;11.35;8.63;;;1.80;99.90;;;;;;5069108;22;20230;-83
2021/01/04 08:35:44;;;;;;;15.85;10.85;;;1.90;99.90;;;;;;5084394;28;20210;-84
2021/01/04 08:38:32;;;;;;;18.30;10.70;;;1.80;99.90;;;;;;5088107;28;20203;-84
2021/01/04 08:41:05;;;;;;;17.98;9.75;;;1.80;99.90;;;;;;5084644;28;20270;-83
2021/01/04 08:43:38;;;;;;;12.35;7.93;;;1.80;99.90;;;;;;5084799;28;20698;-84
2021/01/04 08:46:14;;;;;;;13.95;9.18;;;1.90;99.90;;;;;;5085115;28;20278;-84
2021/01/04 08:48:42;;;;;;;13.77;10.05;;;1.90;99.90;;;;;;5083110;28;20213;-84
2021/01/04 08:51:12;;;;;;;12.60;8.30;;;1.80;99.90;;;;;;5082394;28;20209;-86
2021/01/04 08:53:39;;;;;;;12.48;9.43;;;1.80;99.90;;;;;;5082213;28;20219;-84
2021/01/04 08:56:22;;;;;;;12.27;8.85;;;1.80;99.90;;;;;;5084035;28;20218;-85
2021/01/04 08:58:49;;;;;;;16.10;12.35;;;1.80;99.90;;;;;;5085332;28;20247;-85
2021/01/04 09:01:23;;;;;;;14.57;10.20;;;1.90;99.90;;;;;;5084947;28;20223;-84
2021/01/04 09:04:02;;;;;;;18.15;11.80;;;1.90;99.90;;;;;;5084577;28;20226;-84
2021/01/04 09:06:31;;;;;;;12.13;10.60;;;1.80;99.90;;;;;;5087050;28;20245;-84
2021/01/04 09:09:10;;;;;;;13.35;10.35;;;1.80;99.90;;;;;;5090098;28;20317;-84
2021/01/04 09:11:45;;;;;;;16.00;9.98;;;1.80;99.90;;;;;;5085259;28;20183;-84
2021/01/04 09:14:16;;;;;;;15.68;11.13;;;1.80;99.90;;;;;;5082961;28;20224;-82
2021/01/04 09:16:44;;;;;;;19.23;12.15;;;1.80;99.90;;;;;;5089937;28;20277;-82
2021/01/04 09:19:22;;;;;;;14.52;11.07;;;1.90;99.90;;;;;;5090243;28;20292;-83
2021/01/04 09:21:49;;;;;;;16.20;11.10;;;1.90;99.90;;;;;;5089349;28;20260;-84
2021/01/04 09:24:32;;;;;;;15.50;11.73;;;1.80;99.90;;;;;;5083807;28;20294;-84
2021/01/04 09:27:05;;;;;;;15.52;10.95;;;1.90;99.90;;;;;;5082114;28;20292;-84
2021/01/04 09:29:36;;;;;;;16.70;11.57;;;1.90;99.90;;;;;;5083546;28;20194;-84
2021/01/04 09:32:07;;;;;;;14.40;10.40;;;1.90;99.90;;;;;;5087269;28;20183;-84
2021/01/04 09:34:34;;;;;;;16.13;11.40;;;1.90;99.90;;;;;;5092985;28;20179;-83
2021/01/04 09:37:08;;;;;;;14.43;10.15;;;1.90;99.90;;;;;;5091093;28;20296;-84
2021/01/04 09:39:37;;;;;;;13.95;10.55;;;1.90;99.90;;;;;;5085823;28;20194;-84
2021/01/04 09:42:07;;;;;;;15.73;11.40;;;1.90;99.90;;;;;;5085140;28;20226;-83
2021/01/04 09:44:35;;;;;;;21.75;12.85;;;1.90;99.90;;;;;;5084893;28;20210;-84
2021/01/04 09:47:06;;;;;;;14.07;10.43;;;1.80;99.90;;;;;;5083920;28;20293;-84
2021/01/04 09:49:38;;;;;;;15.80;11.55;;;1.90;99.90;;;;;;5084682;28;20246;-84
2021/01/04 09:52:14;;;;;;;17.85;11.25;;;2.00;99.90;;;;;;5084306;28;20213;-83
2021/01/04 09:54:43;;;;;;;16.35;10.23;;;1.90;99.90;;;;;;5084285;28;20228;-84
2021/01/04 09:57:10;;;;;;;18.63;12.40;;;2.00;99.90;;;;;;5083760;28;20289;-84
2021/01/04 09:59:43;;;;;;;20.73;12.00;;;1.90;99.90;;;;;;5085214;28;20327;-84
2021/01/04 10:02:20;;;;;;;15.68;11.90;;;2.00;99.90;;;;;;5083128;28;20229;-84
2021/01/04 10:04:47;;;;;;;18.92;12.57;;;1.90;99.90;;;;;;5083000;28;20323;-85
2021/01/04 10:07:19;;;;;;;16.45;12.05;;;2.00;99.90;;;;;;5082587;28;20289;-84
2021/01/04 10:09:49;;;;;;;13.52;11.02;;;2.00;99.90;;;;;;5081020;28;20192;-83
2021/01/04 10:12:23;;;;;;;18.13;12.43;;;2.00;99.90;;;;;;5081261;28;20214;-84
2021/01/04 10:14:55;;;;;;;17.70;11.05;;;1.90;99.90;;;;;;5080936;28;20198;-84
2021/01/04 10:17:26;;;;;;;16.35;11.80;;;1.80;99.90;;;;;;5081241;28;20210;-84
2021/01/04 10:19:59;;;;;;;16.48;11.82;;;1.80;99.90;;;;;;5085275;28;20580;-83
2021/01/04 10:22:30;;;;;;;18.42;12.10;;;1.80;99.90;;;;;;5088376;28;20214;-84
2021/01/04 10:24:59;;;;;;;17.23;12.40;;;1.80;99.90;;;;;;5088004;28;20530;-84
2021/01/04 10:27:28;;;;;;;17.30;12.75;;;1.80;99.90;;;;;;5087359;28;20592;-84
2021/01/04 10:29:57;;;;;;;20.38;13.85;;;1.80;99.90;;;;;;5084927;28;20316;-84
2021/01/04 10:32:27;;;;;;;16.23;11.88;;;1.90;99.90;;;;;;5083513;28;20214;-83
2021/01/04 10:34:55;;;;;;;17.98;11.77;;;1.80;99.90;;;;;;5083512;28;20187;-84
2021/01/04 10:37:48;;;;;;;25.30;12.85;;;1.90;99.90;;;;;;5081724;28;20230;-84
2021/01/04 10:40:16;;;;;;;17.48;11.30;;;1.90;99.90;;;;;;5083214;28;20193;-84
2021/01/04 10:42:45;;;;;;;17.55;12.20;;;2.00;99.90;;;;;;5084178;28;20281;-83
2021/01/04 10:45:14;;;;;;;19.27;11.95;;;1.80;99.90;;;;;;5086605;28;20202;-84
2021/01/04 10:47:51;;;;;;;18.88;11.55;;;1.80;99.90;;;;;;5086938;28;20293;-84
2021/01/04 10:50:21;;;;;;;19.08;12.07;;;1.90;99.90;;;;;;5088199;28;20182;-85
2021/01/04 10:52:56;;;;;;;19.27;12.63;;;1.80;99.90;;;;;;5086068;28;20218;-84
2021/01/04 10:55:24;;;;;;;17.60;13.73;;;1.90;99.90;;;;;;5086863;28;20204;-83
2021/01/04 10:57:55;;;;;;;21.42;15.38;;;1.80;99.90;;;;;;5084004;28;20665;-84
2021/01/04 11:00:25;;;;;;;24.05;16.08;;;1.80;99.90;;;;;;5087110;28;20218;-84
2021/01/04 11:02:54;;;;;;;23.40;15.25;;;1.80;99.90;;;;;;5096298;28;20269;-84
2021/01/04 11:05:36;;;;;;;21.92;14.60;;;1.90;99.90;;;;;;5090052;28;20202;-84
2021/01/04 11:08:33;;;;;;;25.63;13.70;;;1.90;99.90;;;;;;5084582;28;20235;-84
2021/01/04 11:11:05;;;;;;;21.60;13.48;;;1.90;99.90;;;;;;5001999;28;20197;-83
2021/01/04 11:13:34;;;;;;;18.83;12.90;;;1.80;99.90;;;;;;5073445;28;20313;-84
2021/01/04 11:16:10;;;;;;;22.20;13.98;;;1.80;99.90;;;;;;5083619;28;20213;-85
2021/01/04 11:18:52;;;;;;;21.17;13.05;;;1.80;99.90;;;;;;5081166;28;20200;-84
2021/01/04 11:21:32;;;;;;;21.70;11.95;;;1.80;99.90;;;;;;5081723;28;20236;-83
2021/01/04 11:23:58;;;;;;;22.63;12.60;;;1.90;99.90;;;;;;5100905;28;20293;-82
2021/01/04 11:26:25;;;;;;;27.95;14.25;;;1.80;99.90;;;;;;5093070;28;20213;-84
2021/01/04 11:28:51;;;;;;;27.05;16.13;;;1.80;99.90;;;;;;5085680;28;20659;-85
2021/01/04 11:31:18;;;;;;;22.40;14.45;;;1.70;99.90;;;;;;5085782;28;20199;-84
2021/01/04 11:33:44;;;;;;;23.20;15.52;;;1.70;99.90;;;;;;5087610;28;20234;-84
2021/01/04 11:36:11;;;;;;;22.90;14.90;;;1.80;99.90;;;;;;5086303;28;20206;-84
2021/01/04 11:38:38;;;;;;;20.75;14.00;;;1.80;99.90;;;;;;5085295;28;20270;-83
2021/01/04 11:41:04;;;;;;;22.13;13.60;;;1.90;99.90;;;;;;5083140;28;20252;-84
2021/01/04 11:43:31;;;;;;;21.52;13.95;;;2.00;99.90;;;;;;5084273;28;20236;-84
2021/01/04 11:45:57;;;;;;;22.15;13.93;;;1.90;99.90;;;;;;5083760;28;20202;-85
2021/01/04 11:48:24;;;;;;;19.92;14.07;;;1.90;99.90;;;;;;5084658;28;20207;-84
2021/01/04 11:50:51;;;;;;;27.67;15.30;;;2.00;99.90;;;;;;5083821;28;20199;-84
2021/01/04 11:53:17;;;;;;;23.65;14.80;;;1.90;99.90;;;;;;5082347;28;20222;-84
2021/01/04 11:55:44;;;;;;;31.20;17.02;;;1.90;99.90;;;;;;5083702;28;20206;-84
2021/01/04 11:58:14;;;;;;;25.23;16.00;;;1.80;99.90;;;;;;5085138;28;20269;-84
2021/01/04 12:00:41;;;;;;;20.42;15.02;;;1.80;99.90;;;;;;5084211;28;20242;-85
2021/01/04 12:03:09;;;;;;;22.20;15.73;;;1.90;99.90;;;;;;5081976;28;20312;-87
2021/01/04 12:05:35;;;;;;;20.70;14.60;;;1.80;99.90;;;;;;5080054;28;20202;-84
2021/01/04 12:08:02;;;;;;;19.80;14.63;;;1.90;99.90;;;;;;5081157;28;20610;-85
2021/01/04 12:10:29;;;;;;;26.35;14.25;;;1.80;99.90;;;;;;5085587;28;20269;-85
2021/01/04 12:12:57;;;;;;;24.58;15.05;;;1.90;99.90;;;;;;5085290;28;20230;-84
2021/01/04 12:15:24;;;;;;;27.25;15.48;;;1.90;99.90;;;;;;5085041;28;20202;-84
2021/01/04 12:17:51;;;;;;;26.25;15.63;;;1.90;99.90;;;;;;5085189;28;20245;-84
2021/01/04 12:20:17;;;;;;;22.17;14.90;;;1.90;99.90;;;;;;5085853;28;20240;-85
2021/01/04 12:22:44;;;;;;;21.50;13.73;;;2.00;99.90;;;;;;5085022;28;20247;-84
2021/01/04 12:25:11;;;;;;;26.05;15.07;;;1.90;99.90;;;;;;5085006;28;20693;-83
2021/01/04 12:27:37;;;;;;;29.45;18.73;;;1.90;99.90;;;;;;5085445;28;20232;-83
2021/01/04 12:30:06;;;;;;;20.95;12.90;;;1.90;99.90;;;;;;5085748;28;20202;-84
2021/01/04 12:32:33;;;;;;;20.13;13.20;;;2.00;99.90;;;;;;5090142;28;20734;-85
2021/01/04 12:34:59;;;;;;;25.77;15.05;;;1.90;99.90;;;;;;5097844;28;20186;-84
2021/01/04 12:37:26;;;;;;;26.48;14.35;;;1.90;99.90;;;;;;5092004;28;20202;-84
2021/01/04 12:39:52;;;;;;;23.25;12.98;;;2.00;99.90;;;;;;5088603;28;20206;-83
2021/01/04 12:42:19;;;;;;;22.15;13.68;;;1.90;99.90;;;;;;5091135;28;20317;-83
2021/01/04 12:44:47;;;;;;;18.27;12.27;;;1.80;99.90;;;;;;5089904;28;20340;-84
2021/01/04 12:47:15;;;;;;;27.75;14.07;;;1.80;99.90;;;;;;5086838;28;20202;-85
2021/01/04 12:49:43;;;;;;;25.42;13.52;;;1.80;99.90;;;;;;5085745;28;20293;-84
2021/01/04 12:52:10;;;;;;;24.33;15.57;;;1.80;99.90;;;;;;5085398;28;20266;-84
2021/01/04 12:54:37;;;;;;;28.02;18.27;;;1.60;99.90;;;;;;5087897;28;20285;-84
2021/01/04 12:57:08;;;;;;;30.90;18.77;;;1.70;99.90;;;;;;5096119;28;20254;-85
2021/01/04 12:59:38;;;;;;;27.88;15.63;;;1.80;99.90;;;;;;5098079;28;20183;-83
2021/01/04 13:02:05;;;;;;;25.73;17.52;;;1.80;99.90;;;;;;5099341;28;20282;-83
2021/01/04 13:04:32;;;;;;;23.73;13.77;;;1.70;99.90;;;;;;5098778;28;20243;-84
2021/01/04 13:06:58;;;;;;;24.35;14.27;;;1.80;99.90;;;;;;5098069;28;20274;-84
2021/01/04 13:09:25;;;;;;;25.40;15.40;;;1.80;99.90;;;;;;5098784;28;20205;-83
2021/01/04 13:11:52;;;;;;;27.13;14.20;;;1.80;99.90;;;;;;5099542;28;20205;-83
2021/01/04 13:14:20;;;;;;;21.52;14.60;;;1.80;99.90;;;;;;5099531;28;20211;-82
2021/01/04 13:16:48;;;;;;;24.08;14.13;;;1.80;99.90;;;;;;5099537;28;20175;-82
2021/01/04 13:19:14;;;;;;;34.33;16.95;;;1.80;99.90;;;;;;5099531;28;20213;-82
2021/01/04 13:21:42;;;;;;;26.48;16.67;;;1.80;99.90;;;;;;5099294;28;20218;-82
2021/01/04 13:24:11;;;;;;;27.75;17.00;;;1.80;99.90;;;;;;5087366;28;20226;-85
2021/01/04 13:26:42;;;;;;;23.27;15.70;;;1.80;99.90;;;;;;5087823;28;20209;-85
2021/01/04 13:29:11;;;;;;;27.73;14.02;;;1.80;99.90;;;;;;5086964;28;20274;-85
2021/01/04 13:31:38;;;;;;;24.95;14.60;;;1.80;99.90;;;;;;5091165;28;20194;-85
2021/01/04 13:34:05;;;;;;;23.02;15.10;;;1.80;99.90;;;;;;5086257;28;20237;-84
2021/01/04 13:36:32;;;;;;;28.75;18.25;;;1.90;99.90;;;;;;5085190;28;20655;-84
2021/01/04 13:38:59;;;;;;;30.20;16.73;;;1.90;99.90;;;;;;5084958;28;20251;-85
2021/01/04 13:41:25;;;;;;;21.23;15.98;;;1.90;99.90;;;;;;5084200;28;20272;-85
2021/01/04 13:43:52;;;;;;;29.05;17.20;;;1.90;99.90;;;;;;5085668;28;20229;-84
2021/01/04 13:46:23;;;;;;;27.80;17.17;;;1.80;99.90;;;;;;5096024;28;20210;-84
2021/01/04 13:48:50;;;;;;;27.38;17.30;;;1.80;99.90;;;;;;5092812;28;20237;-84
2021/01/04 13:51:16;;;;;;;28.42;16.73;;;1.80;99.90;;;;;;5092154;28;20233;-84
2021/01/04 13:53:42;;;;;;;29.55;16.73;;;1.80;99.90;;;;;;5095581;28;20282;-84
2021/01/04 13:56:10;;;;;;;29.38;16.70;;;1.70;99.90;;;;;;5095207;28;20202;-83
2021/01/04 13:58:37;;;;;;;24.52;15.00;;;1.80;99.90;;;;;;5096564;28;20210;-84
2021/01/04 14:01:04;;;;;;;31.92;16.58;;;1.90;99.90;;;;;;5096526;28;20218;-84
2021/01/04 14:03:31;;;;;;;22.85;15.35;;;1.90;99.90;;;;;;5097064;28;20218;-84
2021/01/04 14:05:57;;;;;;;26.20;15.90;;;2.00;99.90;;;;;;5096942;28;20221;-84
2021/01/04 14:08:24;;;;;;;27.25;15.68;;;1.70;99.90;;;;;;5097501;28;20214;-82
2021/01/04 14:10:50;;;;;;;25.00;15.43;;;1.80;99.90;;;;;;5098747;28;20190;-83
2021/01/04 14:13:18;;;;;;;29.10;17.13;;;1.80;99.90;;;;;;5098362;28;20217;-82
2021/01/04 14:15:44;;;;;;;27.15;16.45;;;1.80;99.90;;;;;;5098234;28;20253;-83
2021/01/04 14:18:13;;;;;;;33.78;16.27;;;1.70;99.90;;;;;;5098278;28;20269;-84
2021/01/04 14:20:39;;;;;;;26.70;17.73;;;1.80;99.90;;;;;;5089034;28;20335;-84
2021/01/04 14:23:06;;;;;;;22.60;14.85;;;2.00;99.90;;;;;;5084016;28;20290;-83
2021/01/04 14:25:32;;;;;;;23.75;16.25;;;1.90;99.90;;;;;;5088467;28;20393;-84
2021/01/04 14:27:59;;;;;;;23.70;15.77;;;1.90;99.90;;;;;;5089378;28;20239;-84
2021/01/04 14:30:27;;;;;;;17.92;11.75;;;2.00;99.90;;;;;;5090080;28;20198;-84